Terminal Aerodrome Forecast
Issued by NWS

Home | Current Version | Previous Version | Text Only | Print | Product List | Glossary On
Versions: 1 2 3 4 5 6 7 8 9 10 11 12 13 14 15 16 17 18 19 20
342
FTUS42 KTAE 301720
TAFVLD
TAF
KVLD 301720Z 3018/0118 18010KT P6SM VCTS BKN040CB
     FM010000 16003KT P6SM SCT150
     FM010800 15004KT 4SM BR SCT150
     FM011300 17005KT P6SM SCT040=

USA.gov is the U.S. government's official web portal to all federal, state and local government web resources and services.